sensor_id;sensor_type;location;lat;lon;timestamp;pressure;altitude;pressure_sealevel;temperature;humidity
48848;BME280;36611;51.638;5.784;2023-02-22T00:01:13;101433.53;;;11.29;60.18
48848;BME280;36611;51.638;5.784;2023-02-22T00:03:58;101431.78;;;11.28;60.24
48848;BME280;36611;51.638;5.784;2023-02-22T00:06:25;101437.19;;;11.28;60.23
48848;BME280;36611;51.638;5.784;2023-02-22T00:08:52;101437.28;;;11.27;60.25
48848;BME280;36611;51.638;5.784;2023-02-22T00:11:20;101435.44;;;11.27;60.21
48848;BME280;36611;51.638;5.784;2023-02-22T00:13:46;101435.44;;;11.27;60.12
48848;BME280;36611;51.638;5.784;2023-02-22T00:16:19;101439.31;;;11.23;60.30
48848;BME280;36611;51.638;5.784;2023-02-22T00:18:47;101433.16;;;11.21;60.56
48848;BME280;36611;51.638;5.784;2023-02-22T00:21:15;101427.97;;;11.18;60.38
48848;BME280;36611;51.638;5.784;2023-02-22T00:23:45;101430.88;;;11.15;60.56
48848;BME280;36611;51.638;5.784;2023-02-22T00:26:17;101440.81;;;11.13;60.45
48848;BME280;36611;51.638;5.784;2023-02-22T00:28:51;101437.25;;;11.12;60.50
48848;BME280;36611;51.638;5.784;2023-02-22T00:31:19;101446.91;;;11.17;60.63
48848;BME280;36611;51.638;5.784;2023-02-22T00:33:48;101445.84;;;11.19;60.78
48848;BME280;36611;51.638;5.784;2023-02-22T00:36:15;101447.38;;;11.23;60.41
48848;BME280;36611;51.638;5.784;2023-02-22T00:38:42;101443.91;;;11.21;60.30
48848;BME280;36611;51.638;5.784;2023-02-22T00:41:10;101446.78;;;11.18;60.29
48848;BME280;36611;51.638;5.784;2023-02-22T00:43:37;101442.38;;;11.17;60.28
48848;BME280;36611;51.638;5.784;2023-02-22T00:46:04;101447.66;;;11.19;60.48
48848;BME280;36611;51.638;5.784;2023-02-22T00:48:30;101434.13;;;11.20;60.60
48848;BME280;36611;51.638;5.784;2023-02-22T00:50:57;101438.72;;;11.18;60.22
48848;BME280;36611;51.638;5.784;2023-02-22T00:53:24;101434.41;;;11.16;60.17
48848;BME280;36611;51.638;5.784;2023-02-22T00:55:52;101426.41;;;11.14;60.41
48848;BME280;36611;51.638;5.784;2023-02-22T00:58:20;101430.94;;;11.13;60.44
48848;BME280;36611;51.638;5.784;2023-02-22T01:00:47;101428.34;;;11.12;60.37
48848;BME280;36611;51.638;5.784;2023-02-22T01:03:16;101421.22;;;11.11;60.19
48848;BME280;36611;51.638;5.784;2023-02-22T01:05:43;101420.38;;;11.10;60.18
48848;BME280;36611;51.638;5.784;2023-02-22T01:08:15;101418.66;;;11.09;60.19
48848;BME280;36611;51.638;5.784;2023-02-22T01:10:42;101414.22;;;11.08;60.38
48848;BME280;36611;51.638;5.784;2023-02-22T01:13:10;101417.69;;;11.10;60.14
48848;BME280;36611;51.638;5.784;2023-02-22T01:15:41;101416.06;;;11.08;60.32
48848;BME280;36611;51.638;5.784;2023-02-22T01:18:09;101408.94;;;11.07;60.30
48848;BME280;36611;51.638;5.784;2023-02-22T01:20:37;101411.84;;;11.04;60.23
48848;BME280;36611;51.638;5.784;2023-02-22T01:23:06;101405.22;;;10.95;60.42
48848;BME280;36611;51.638;5.784;2023-02-22T01:25:34;101403.03;;;10.88;60.27
48848;BME280;36611;51.638;5.784;2023-02-22T01:28:03;101397.19;;;10.81;60.07
48848;BME280;36611;51.638;5.784;2023-02-22T01:30:32;101399.09;;;10.79;60.27
48848;BME280;36611;51.638;5.784;2023-02-22T01:33:04;101399.97;;;10.79;60.35
48848;BME280;36611;51.638;5.784;2023-02-22T01:35:34;101401.69;;;10.80;60.31
48848;BME280;36611;51.638;5.784;2023-02-22T01:38:01;101395.44;;;10.80;60.31
48848;BME280;36611;51.638;5.784;2023-02-22T01:40:33;101395.56;;;10.78;60.44
48848;BME280;36611;51.638;5.784;2023-02-22T01:43:05;101391.13;;;10.77;60.40
48848;BME280;36611;51.638;5.784;2023-02-22T01:45:53;101389.97;;;10.81;60.49
48848;BME280;36611;51.638;5.784;2023-02-22T01:48:30;101386.91;;;10.88;60.50
48848;BME280;36611;51.638;5.784;2023-02-22T01:50:58;101385.56;;;10.95;60.54
48848;BME280;36611;51.638;5.784;2023-02-22T01:54:22;101380.38;;;10.92;60.39
48848;BME280;36611;51.638;5.784;2023-02-22T01:56:24;101384.78;;;10.93;60.57
48848;BME280;36611;51.638;5.784;2023-02-22T01:58:56;101378.66;;;10.91;60.28
48848;BME280;36611;51.638;5.784;2023-02-22T02:01:24;101375.28;;;10.87;60.36
48848;BME280;36611;51.638;5.784;2023-02-22T02:03:54;101381.81;;;10.83;60.38
48848;BME280;36611;51.638;5.784;2023-02-22T02:06:24;101375.03;;;10.77;60.29
48848;BME280;36611;51.638;5.784;2023-02-22T02:09:11;101376.47;;;10.69;60.11
48848;BME280;36611;51.638;5.784;2023-02-22T02:11:40;101373.31;;;10.62;60.02
48848;BME280;36611;51.638;5.784;2023-02-22T02:14:09;101362.19;;;10.54;60.16
48848;BME280;36611;51.638;5.784;2023-02-22T02:16:39;101361.59;;;10.49;60.49
48848;BME280;36611;51.638;5.784;2023-02-22T02:19:18;101360.25;;;10.42;60.35
48848;BME280;36611;51.638;5.784;2023-02-22T02:27:25;101354.97;;;10.40;60.54
48848;BME280;36611;51.638;5.784;2023-02-22T02:32:54;101344.91;;;10.44;60.70
48848;BME280;36611;51.638;5.784;2023-02-22T02:35:36;101340.31;;;10.46;60.53
48848;BME280;36611;51.638;5.784;2023-02-22T02:38:32;101337.44;;;10.49;60.85
48848;BME280;36611;51.638;5.784;2023-02-22T02:41:09;101334.75;;;10.49;60.58
48848;BME280;36611;51.638;5.784;2023-02-22T02:43:50;101330.34;;;10.48;60.56
48848;BME280;36611;51.638;5.784;2023-02-22T02:48:58;101331.09;;;10.50;60.74
48848;BME280;36611;51.638;5.784;2023-02-22T02:51:31;101327.75;;;10.46;60.47
48848;BME280;36611;51.638;5.784;2023-02-22T02:54:00;101329.84;;;10.41;60.79
48848;BME280;36611;51.638;5.784;2023-02-22T02:56:28;101320.84;;;10.42;60.63
48848;BME280;36611;51.638;5.784;2023-02-22T02:58:56;101323.25;;;10.47;60.74
48848;BME280;36611;51.638;5.784;2023-02-22T03:06:59;101315.38;;;10.44;60.83
48848;BME280;36611;51.638;5.784;2023-02-22T03:15:11;101314.78;;;10.39;60.88
48848;BME280;36611;51.638;5.784;2023-02-22T03:17:51;101309.59;;;10.36;60.82
48848;BME280;36611;51.638;5.784;2023-02-22T03:20:29;101319.00;;;10.29;60.60
48848;BME280;36611;51.638;5.784;2023-02-22T03:23:06;101311.41;;;10.21;60.92
48848;BME280;36611;51.638;5.784;2023-02-22T03:25:53;101306.31;;;10.16;61.10
48848;BME280;36611;51.638;5.784;2023-02-22T03:28:23;101314.25;;;10.18;61.06
48848;BME280;36611;51.638;5.784;2023-02-22T03:30:58;101303.63;;;10.16;61.08
48848;BME280;36611;51.638;5.784;2023-02-22T03:33:33;101310.13;;;10.12;61.04
48848;BME280;36611;51.638;5.784;2023-02-22T03:36:14;101306.69;;;10.10;61.05
48848;BME280;36611;51.638;5.784;2023-02-22T03:38:44;101298.44;;;10.13;61.47
48848;BME280;36611;51.638;5.784;2023-02-22T03:41:16;101299.97;;;10.17;61.46
48848;BME280;36611;51.638;5.784;2023-02-22T03:43:47;101296.63;;;10.14;61.28
48848;BME280;36611;51.638;5.784;2023-02-22T03:46:16;101297.00;;;10.08;60.97
48848;BME280;36611;51.638;5.784;2023-02-22T03:48:51;101297.00;;;10.08;61.47
48848;BME280;36611;51.638;5.784;2023-02-22T03:51:23;101298.63;;;10.10;61.52
48848;BME280;36611;51.638;5.784;2023-02-22T03:53:56;101291.53;;;10.09;61.52
48848;BME280;36611;51.638;5.784;2023-02-22T03:56:37;101290.88;;;10.06;61.72
48848;BME280;36611;51.638;5.784;2023-02-22T03:59:08;101288.28;;;10.04;61.79
48848;BME280;36611;51.638;5.784;2023-02-22T04:01:36;101282.16;;;10.02;61.79
48848;BME280;36611;51.638;5.784;2023-02-22T04:04:04;101282.06;;;10.04;61.90
48848;BME280;36611;51.638;5.784;2023-02-22T04:06:31;101282.53;;;10.10;61.77
48848;BME280;36611;51.638;5.784;2023-02-22T04:09:00;101278.69;;;10.14;62.07
48848;BME280;36611;51.638;5.784;2023-02-22T04:11:26;101275.34;;;10.11;62.04
48848;BME280;36611;51.638;5.784;2023-02-22T04:13:53;101274.88;;;10.04;61.90
48848;BME280;36611;51.638;5.784;2023-02-22T04:16:20;101268.81;;;10.01;61.74
48848;BME280;36611;51.638;5.784;2023-02-22T04:18:48;101271.59;;;9.99;61.92
48848;BME280;36611;51.638;5.784;2023-02-22T04:21:17;101267.38;;;9.95;62.07
48848;BME280;36611;51.638;5.784;2023-02-22T04:23:47;101262.41;;;9.89;62.07
48848;BME280;36611;51.638;5.784;2023-02-22T04:26:14;101254.53;;;9.86;62.10
48848;BME280;36611;51.638;5.784;2023-02-22T04:28:44;101251.94;;;9.84;62.01
48848;BME280;36611;51.638;5.784;2023-02-22T04:31:16;101251.28;;;9.81;62.26
48848;BME280;36611;51.638;5.784;2023-02-22T04:33:43;101247.53;;;9.83;62.50
48848;BME280;36611;51.638;5.784;2023-02-22T04:36:14;101235.84;;;9.84;62.47
48848;BME280;36611;51.638;5.784;2023-02-22T04:38:43;101236.91;;;9.82;62.52
48848;BME280;36611;51.638;5.784;2023-02-22T04:41:10;101231.53;;;9.82;62.47
48848;BME280;36611;51.638;5.784;2023-02-22T04:43:37;101226.94;;;9.84;62.75
48848;BME280;36611;51.638;5.784;2023-02-22T04:46:15;101220.53;;;9.86;62.74
48848;BME280;36611;51.638;5.784;2023-02-22T04:48:42;101214.19;;;9.87;62.63
48848;BME280;36611;51.638;5.784;2023-02-22T04:51:09;101219.38;;;9.91;62.62
48848;BME280;36611;51.638;5.784;2023-02-22T04:53:40;101217.38;;;9.94;62.94
48848;BME280;36611;51.638;5.784;2023-02-22T04:56:07;101213.53;;;9.98;62.91
48848;BME280;36611;51.638;5.784;2023-02-22T04:58:34;101220.53;;;10.01;62.82
48848;BME280;36611;51.638;5.784;2023-02-22T05:01:01;101211.41;;;10.03;62.89
48848;BME280;36611;51.638;5.784;2023-02-22T05:03:28;101213.25;;;10.03;62.96
48848;BME280;36611;51.638;5.784;2023-02-22T05:05:55;101217.66;;;10.04;62.96
48848;BME280;36611;51.638;5.784;2023-02-22T05:08:21;101216.69;;;10.05;62.73
48848;BME280;36611;51.638;5.784;2023-02-22T05:10:48;101201.44;;;10.05;62.88
48848;BME280;36611;51.638;5.784;2023-02-22T05:13:14;101206.81;;;10.05;63.04
48848;BME280;36611;51.638;5.784;2023-02-22T05:15:41;101202.41;;;10.04;63.06
48848;BME280;36611;51.638;5.784;2023-02-22T05:18:08;101202.41;;;10.04;62.95
48848;BME280;36611;51.638;5.784;2023-02-22T05:20:35;101196.19;;;10.04;62.93
48848;BME280;36611;51.638;5.784;2023-02-22T05:23:02;101212.28;;;10.04;63.07
48848;BME280;36611;51.638;5.784;2023-02-22T05:25:31;101201.66;;;10.02;63.31
48848;BME280;36611;51.638;5.784;2023-02-22T05:28:13;101208.94;;;10.00;63.23
48848;BME280;36611;51.638;5.784;2023-02-22T05:30:40;101207.22;;;9.99;63.21
48848;BME280;36611;51.638;5.784;2023-02-22T05:33:07;101206.34;;;9.99;63.39
48848;BME280;36611;51.638;5.784;2023-02-22T05:35:34;101203.56;;;10.00;63.08
48848;BME280;36611;51.638;5.784;2023-02-22T05:38:03;101200.03;;;10.00;63.43
48848;BME280;36611;51.638;5.784;2023-02-22T05:40:30;101203.56;;;10.00;63.49
48848;BME280;36611;51.638;5.784;2023-02-22T05:42:57;101197.22;;;10.01;63.47
48848;BME280;36611;51.638;5.784;2023-02-22T05:45:26;101196.28;;;10.02;63.31
48848;BME280;36611;51.638;5.784;2023-02-22T05:47:53;101191.78;;;10.03;63.42
48848;BME280;36611;51.638;5.784;2023-02-22T05:50:20;101191.88;;;10.01;63.36
48848;BME280;36611;51.638;5.784;2023-02-22T05:52:48;101189.19;;;10.01;63.34
48848;BME280;36611;51.638;5.784;2023-02-22T05:55:17;101187.47;;;10.00;63.50
48848;BME280;36611;51.638;5.784;2023-02-22T05:57:45;101185.75;;;9.99;63.82
48848;BME280;36611;51.638;5.784;2023-02-22T06:00:18;101187.66;;;9.97;63.44
48848;BME280;36611;51.638;5.784;2023-02-22T06:02:45;101175.09;;;9.98;63.66
48848;BME280;36611;51.638;5.784;2023-02-22T06:05:12;101174.91;;;10.01;63.73
48848;BME280;36611;51.638;5.784;2023-02-22T06:07:39;101170.22;;;10.04;63.44
48848;BME280;36611;51.638;5.784;2023-02-22T06:10:06;101169.25;;;10.05;63.46
48848;BME280;36611;51.638;5.784;2023-02-22T06:12:32;101163.88;;;10.05;63.71
48848;BME280;36611;51.638;5.784;2023-02-22T06:14:59;101164.84;;;10.04;63.67
48848;BME280;36611;51.638;5.784;2023-02-22T06:17:25;101165.81;;;10.03;63.47
48848;BME280;36611;51.638;5.784;2023-02-22T06:19:52;101157.00;;;10.01;63.72
48848;BME280;36611;51.638;5.784;2023-02-22T06:22:19;101155.38;;;9.99;63.60
48848;BME280;36611;51.638;5.784;2023-02-22T06:24:45;101151.81;;;9.98;63.61
48848;BME280;36611;51.638;5.784;2023-02-22T06:27:12;101152.59;;;10.00;63.84
48848;BME280;36611;51.638;5.784;2023-02-22T06:29:43;101156.03;;;10.02;63.85
48848;BME280;36611;51.638;5.784;2023-02-22T06:32:10;101160.25;;;10.06;63.75
48848;BME280;36611;51.638;5.784;2023-02-22T06:34:37;101150.94;;;10.12;63.58
48848;BME280;36611;51.638;5.784;2023-02-22T06:37:06;101148.91;;;10.15;63.57
48848;BME280;36611;51.638;5.784;2023-02-22T06:39:33;101141.91;;;10.13;63.56
48848;BME280;36611;51.638;5.784;2023-02-22T06:42:00;101138.28;;;10.14;63.75
48848;BME280;36611;51.638;5.784;2023-02-22T06:44:27;101126.59;;;10.15;63.72
48848;BME280;36611;51.638;5.784;2023-02-22T06:46:53;101127.44;;;10.15;63.68
48848;BME280;36611;51.638;5.784;2023-02-22T06:49:21;101133.56;;;10.17;63.54
48848;BME280;36611;51.638;5.784;2023-02-22T06:51:48;101129.94;;;10.18;63.49
48848;BME280;36611;51.638;5.784;2023-02-22T06:54:15;101129.94;;;10.18;63.60
48848;BME280;36611;51.638;5.784;2023-02-22T06:56:41;101122.06;;;10.15;63.75
48848;BME280;36611;51.638;5.784;2023-02-22T06:59:08;101118.53;;;10.15;63.81
48848;BME280;36611;51.638;5.784;2023-02-22T07:01:35;101118.63;;;10.13;63.67
48848;BME280;36611;51.638;5.784;2023-02-22T07:04:02;101125.72;;;10.14;63.61
48848;BME280;36611;51.638;5.784;2023-02-22T07:06:29;101123.91;;;10.15;63.86
48848;BME280;36611;51.638;5.784;2023-02-22T07:08:55;101130.13;;;10.15;63.61
48848;BME280;36611;51.638;5.784;2023-02-22T07:11:22;101124.56;;;10.18;63.68
48848;BME280;36611;51.638;5.784;2023-02-22T07:13:49;101137.03;;;10.19;63.93
48848;BME280;36611;51.638;5.784;2023-02-22T07:16:16;101131.59;;;10.21;63.69
48848;BME280;36611;51.638;5.784;2023-02-22T07:18:43;101133.31;;;10.22;63.74
48848;BME280;36611;51.638;5.784;2023-02-22T07:21:10;101134.28;;;10.21;63.74
48848;BME280;36611;51.638;5.784;2023-02-22T07:23:37;101128.91;;;10.21;63.77
48848;BME280;36611;51.638;5.784;2023-02-22T07:26:04;101126.22;;;10.21;63.95
48848;BME280;36611;51.638;5.784;2023-02-22T07:28:31;101144.16;;;10.21;63.81
48848;BME280;36611;51.638;5.784;2023-02-22T07:30:57;101141.47;;;10.21;63.85
48848;BME280;36611;51.638;5.784;2023-02-22T07:33:24;101142.22;;;10.23;64.12
48848;BME280;36611;51.638;5.784;2023-02-22T07:35:52;101150.19;;;10.24;63.71
48848;BME280;36611;51.638;5.784;2023-02-22T07:38:19;101153.72;;;10.25;63.93
48848;BME280;36611;51.638;5.784;2023-02-22T07:40:46;101147.50;;;10.24;63.80
48848;BME280;36611;51.638;5.784;2023-02-22T07:43:21;101156.31;;;10.26;64.04
48848;BME280;36611;51.638;5.784;2023-02-22T07:45:52;101154.47;;;10.27;63.77
48848;BME280;36611;51.638;5.784;2023-02-22T07:48:22;101149.13;;;10.27;63.78
48848;BME280;36611;51.638;5.784;2023-02-22T07:50:49;101146.22;;;10.30;63.84
48848;BME280;36611;51.638;5.784;2023-02-22T07:53:19;101140.66;;;10.33;64.02
48848;BME280;36611;51.638;5.784;2023-02-22T07:55:46;101144.00;;;10.36;63.96
48848;BME280;36611;51.638;5.784;2023-02-22T07:58:21;101147.19;;;10.43;64.22
48848;BME280;36611;51.638;5.784;2023-02-22T08:00:48;101151.50;;;10.45;64.14
48848;BME280;36611;51.638;5.784;2023-02-22T08:03:17;101152.16;;;10.49;64.08
48848;BME280;36611;51.638;5.784;2023-02-22T08:05:47;101148.28;;;10.53;64.06
48848;BME280;36611;51.638;5.784;2023-02-22T08:08:14;101152.59;;;10.56;64.03
48848;BME280;36611;51.638;5.784;2023-02-22T08:10:46;101157.88;;;10.57;63.96
48848;BME280;36611;51.638;5.784;2023-02-22T08:13:13;101158.72;;;10.58;64.13
48848;BME280;36611;51.638;5.784;2023-02-22T08:15:40;101160.66;;;10.56;63.86
48848;BME280;36611;51.638;5.784;2023-02-22T08:18:09;101163.25;;;10.57;64.04
48848;BME280;36611;51.638;5.784;2023-02-22T08:20:37;101151.53;;;10.58;63.99
48848;BME280;36611;51.638;5.784;2023-02-22T08:23:06;101164.97;;;10.58;63.92
48848;BME280;36611;51.638;5.784;2023-02-22T08:25:33;101159.59;;;10.58;63.79
48848;BME280;36611;51.638;5.784;2023-02-22T08:28:15;101156.91;;;10.58;64.06
48848;BME280;36611;51.638;5.784;2023-02-22T08:30:42;101160.47;;;10.59;63.95
48848;BME280;36611;51.638;5.784;2023-02-22T08:33:12;101152.19;;;10.62;63.72
48848;BME280;36611;51.638;5.784;2023-02-22T08:35:46;101158.44;;;10.62;63.95
48848;BME280;36611;51.638;5.784;2023-02-22T08:38:21;101157.47;;;10.63;63.81
48848;BME280;36611;51.638;5.784;2023-02-22T08:40:49;101154.56;;;10.66;64.07
48848;BME280;36611;51.638;5.784;2023-02-22T08:43:18;101153.50;;;10.69;64.05
48848;BME280;36611;51.638;5.784;2023-02-22T08:45:45;101153.41;;;10.70;63.81
48848;BME280;36611;51.638;5.784;2023-02-22T08:48:13;101148.59;;;10.75;63.88
48848;BME280;36611;51.638;5.784;2023-02-22T08:50:40;101137.44;;;10.81;64.16
48848;BME280;36611;51.638;5.784;2023-02-22T08:53:08;101140.78;;;10.85;63.77
48848;BME280;36611;51.638;5.784;2023-02-22T08:55:36;101138.63;;;10.90;63.92
48848;BME280;36611;51.638;5.784;2023-02-22T08:58:04;101137.34;;;10.96;63.60
48848;BME280;36611;51.638;5.784;2023-02-22T09:00:35;101132.53;;;11.01;63.95
48848;BME280;36611;51.638;5.784;2023-02-22T09:03:07;101121.56;;;11.04;63.77
48848;BME280;36611;51.638;5.784;2023-02-22T09:05:35;101125.66;;;11.09;63.75
48848;BME280;36611;51.638;5.784;2023-02-22T09:08:03;101133.34;;;11.16;63.77
48848;BME280;36611;51.638;5.784;2023-02-22T09:10:32;101130.22;;;11.22;63.80
48848;BME280;36611;51.638;5.784;2023-02-22T09:12:59;101130.66;;;11.28;63.50
48848;BME280;36611;51.638;5.784;2023-02-22T09:15:27;101132.16;;;11.32;63.59
48848;BME280;36611;51.638;5.784;2023-02-22T09:17:54;101132.06;;;11.34;63.74
48848;BME280;36611;51.638;5.784;2023-02-22T09:20:23;101125.59;;;11.36;63.93
48848;BME280;36611;51.638;5.784;2023-02-22T09:22:50;101121.72;;;11.40;63.78
48848;BME280;36611;51.638;5.784;2023-02-22T09:25:17;101123.13;;;11.46;63.60
48848;BME280;36611;51.638;5.784;2023-02-22T09:27:47;101117.53;;;11.49;63.37
48848;BME280;36611;51.638;5.784;2023-02-22T09:30:18;101102.91;;;11.53;63.56
48848;BME280;36611;51.638;5.784;2023-02-22T09:32:45;101102.56;;;11.58;63.43
48848;BME280;36611;51.638;5.784;2023-02-22T09:35:12;101100.41;;;11.63;63.42
48848;BME280;36611;51.638;5.784;2023-02-22T09:37:39;101096.53;;;11.67;63.31
48848;BME280;36611;51.638;5.784;2023-02-22T09:40:19;101095.88;;;11.76;62.98
48848;BME280;36611;51.638;5.784;2023-02-22T09:43:17;101098.91;;;11.84;63.03
48848;BME280;36611;51.638;5.784;2023-02-22T09:48:54;101097.72;;;12.01;62.74
48848;BME280;36611;51.638;5.784;2023-02-22T09:51:31;101094.56;;;12.07;62.88
48848;BME280;36611;51.638;5.784;2023-02-22T09:54:03;101091.31;;;12.15;62.82
48848;BME280;36611;51.638;5.784;2023-02-22T09:56:31;101092.56;;;12.22;62.91
48848;BME280;36611;51.638;5.784;2023-02-22T09:59:01;101090.28;;;12.28;62.71
48848;BME280;36611;51.638;5.784;2023-02-22T10:01:38;101081.53;;;12.37;62.58
48848;BME280;36611;51.638;5.784;2023-02-22T10:04:22;101083.53;;;12.47;62.51
48848;BME280;36611;51.638;5.784;2023-02-22T10:07:13;101085.41;;;12.57;62.41
48848;BME280;36611;51.638;5.784;2023-02-22T10:09:41;101074.94;;;12.65;61.87
48848;BME280;36611;51.638;5.784;2023-02-22T10:17:53;101064.22;;;12.88;61.75
48848;BME280;36611;51.638;5.784;2023-02-22T10:25:38;101069.59;;;13.23;61.30
48848;BME280;36611;51.638;5.784;2023-02-22T10:28:15;101071.44;;;13.33;61.46
48848;BME280;36611;51.638;5.784;2023-02-22T10:31:03;101064.13;;;13.47;60.82
48848;BME280;36611;51.638;5.784;2023-02-22T10:33:36;101057.88;;;13.57;60.86
48848;BME280;36611;51.638;5.784;2023-02-22T10:36:04;101059.72;;;13.68;60.96
48848;BME280;36611;51.638;5.784;2023-02-22T10:38:33;101062.66;;;13.76;60.84
48848;BME280;36611;51.638;5.784;2023-02-22T10:43:36;101062.13;;;13.93;60.30
48848;BME280;36611;51.638;5.784;2023-02-22T10:46:06;101066.66;;;14.04;60.28
48848;BME280;36611;51.638;5.784;2023-02-22T10:48:36;101059.66;;;14.13;59.85
48848;BME280;36611;51.638;5.784;2023-02-22T10:51:06;101051.78;;;14.21;59.90
48848;BME280;36611;51.638;5.784;2023-02-22T10:53:36;101054.31;;;14.34;59.80
48848;BME280;36611;51.638;5.784;2023-02-22T10:56:21;101049.78;;;14.45;59.44
48848;BME280;36611;51.638;5.784;2023-02-22T10:58:52;101054.28;;;14.56;59.34
48848;BME280;36611;51.638;5.784;2023-02-22T11:04:18;101044.06;;;14.80;58.99
48848;BME280;36611;51.638;5.784;2023-02-22T11:07:15;101045.34;;;14.97;58.72
48848;BME280;36611;51.638;5.784;2023-02-22T11:12:33;101048.38;;;15.24;57.65
48848;BME280;36611;51.638;5.784;2023-02-22T11:17:42;101047.06;;;15.49;57.75
48848;BME280;36611;51.638;5.784;2023-02-22T11:20:24;101047.75;;;15.63;57.15
48848;BME280;36611;51.638;5.784;2023-02-22T11:22:54;101038.41;;;15.76;57.25
48848;BME280;36611;51.638;5.784;2023-02-22T11:25:25;101048.13;;;15.88;57.00
48848;BME280;36611;51.638;5.784;2023-02-22T11:27:52;101037.88;;;16.02;56.75
48848;BME280;36611;51.638;5.784;2023-02-22T11:30:28;101035.78;;;16.15;56.28
48848;BME280;36611;51.638;5.784;2023-02-22T11:33:17;101039.34;;;16.25;56.01
48848;BME280;36611;51.638;5.784;2023-02-22T11:36:03;101033.81;;;16.36;55.91
48848;BME280;36611;51.638;5.784;2023-02-22T11:38:36;101029.97;;;16.48;55.82
48848;BME280;36611;51.638;5.784;2023-02-22T11:43:29;101026.84;;;16.63;54.99
48848;BME280;36611;51.638;5.784;2023-02-22T11:48:42;101021.41;;;16.82;54.76
48848;BME280;36611;51.638;5.784;2023-02-22T11:51:20;101020.25;;;16.94;54.46
48848;BME280;36611;51.638;5.784;2023-02-22T11:54:03;101023.66;;;17.06;54.46
48848;BME280;36611;51.638;5.784;2023-02-22T11:56:46;101019.94;;;17.17;54.02
48848;BME280;36611;51.638;5.784;2023-02-22T11:59:34;101013.63;;;17.26;53.81
48848;BME280;36611;51.638;5.784;2023-02-22T12:13:50;100994.91;;;17.60;53.14
48848;BME280;36611;51.638;5.784;2023-02-22T12:19:12;100978.63;;;17.60;52.47
48848;BME280;36611;51.638;5.784;2023-02-22T12:21:42;100983.78;;;17.53;52.36
48848;BME280;36611;51.638;5.784;2023-02-22T12:24:16;100975.78;;;17.52;52.21
48848;BME280;36611;51.638;5.784;2023-02-22T12:26:48;100967.97;;;17.48;51.87
48848;BME280;36611;51.638;5.784;2023-02-22T12:34:39;100960.34;;;17.52;51.63
48848;BME280;36611;51.638;5.784;2023-02-22T12:37:14;100962.63;;;17.57;51.63
48848;BME280;36611;51.638;5.784;2023-02-22T12:43:23;100954.16;;;17.60;51.07
48848;BME280;36611;51.638;5.784;2023-02-22T12:46:56;100957.66;;;17.52;50.98
48848;BME280;36611;51.638;5.784;2023-02-22T12:48:59;100968.50;;;17.52;51.05
48848;BME280;36611;51.638;5.784;2023-02-22T12:51:40;100974.50;;;17.56;51.17
48848;BME280;36611;51.638;5.784;2023-02-22T12:59:24;100982.47;;;17.67;51.44
48848;BME280;36611;51.638;5.784;2023-02-22T13:01:59;100978.44;;;17.71;51.24
48848;BME280;36611;51.638;5.784;2023-02-22T13:04:26;100990.88;;;17.73;51.26
48848;BME280;36611;51.638;5.784;2023-02-22T13:07:12;100986.13;;;17.75;51.21
48848;BME280;36611;51.638;5.784;2023-02-22T13:16:11;100962.28;;;17.69;50.72
48848;BME280;36611;51.638;5.784;2023-02-22T13:18:50;100962.88;;;17.63;50.55
48848;BME280;36611;51.638;5.784;2023-02-22T13:21:34;100969.63;;;17.59;50.87
48848;BME280;36611;51.638;5.784;2023-02-22T13:24:10;100958.91;;;17.58;51.03
48848;BME280;36611;51.638;5.784;2023-02-22T13:27:29;100956.34;;;17.56;50.77
48848;BME280;36611;51.638;5.784;2023-02-22T13:29:40;100961.22;;;17.53;50.68
48848;BME280;36611;51.638;5.784;2023-02-22T13:40:18;100969.88;;;17.38;51.54
48848;BME280;36611;51.638;5.784;2023-02-22T13:53:33;100969.78;;;17.21;52.21
48848;BME280;36611;51.638;5.784;2023-02-22T13:56:03;100965.53;;;17.18;51.99
48848;BME280;36611;51.638;5.784;2023-02-22T13:58:30;100953.97;;;17.16;52.27
48848;BME280;36611;51.638;5.784;2023-02-22T14:00:58;100959.84;;;17.11;52.34
48848;BME280;36611;51.638;5.784;2023-02-22T14:03:37;100962.09;;;17.06;52.18
48848;BME280;36611;51.638;5.784;2023-02-22T14:06:09;100952.41;;;17.04;52.71
48848;BME280;36611;51.638;5.784;2023-02-22T14:11:03;100959.28;;;16.98;52.86
48848;BME280;36611;51.638;5.784;2023-02-22T14:16:27;100974.28;;;16.93;52.66
48848;BME280;36611;51.638;5.784;2023-02-22T14:19:13;100977.59;;;16.87;52.93
48848;BME280;36611;51.638;5.784;2023-02-22T14:21:58;100974.31;;;16.83;52.87
48848;BME280;36611;51.638;5.784;2023-02-22T14:24:30;100981.03;;;16.79;53.40
48848;BME280;36611;51.638;5.784;2023-02-22T14:27:08;100981.47;;;16.74;53.42
48848;BME280;36611;51.638;5.784;2023-02-22T14:29:36;100984.91;;;16.67;53.55
48848;BME280;36611;51.638;5.784;2023-02-22T14:32:06;100975.91;;;16.57;53.35
48848;BME280;36611;51.638;5.784;2023-02-22T14:37:10;100974.78;;;16.40;53.77
48848;BME280;36611;51.638;5.784;2023-02-22T14:39:43;100980.63;;;16.35;53.67
48848;BME280;36611;51.638;5.784;2023-02-22T14:42:27;100980.16;;;16.30;54.36
48848;BME280;36611;51.638;5.784;2023-02-22T14:48:00;100989.13;;;16.21;54.37
48848;BME280;36611;51.638;5.784;2023-02-22T14:50:41;100993.56;;;16.12;54.52
48848;BME280;36611;51.638;5.784;2023-02-22T14:55:55;100993.81;;;16.00;54.65
48848;BME280;36611;51.638;5.784;2023-02-22T15:01:38;100986.81;;;15.87;55.11
48848;BME280;36611;51.638;5.784;2023-02-22T15:04:26;100984.41;;;15.84;54.93
48848;BME280;36611;51.638;5.784;2023-02-22T15:06:55;100982.09;;;15.80;55.14
48848;BME280;36611;51.638;5.784;2023-02-22T15:09:30;100988.66;;;15.77;55.33
48848;BME280;36611;51.638;5.784;2023-02-22T15:14:33;100987.22;;;15.73;55.57
48848;BME280;36611;51.638;5.784;2023-02-22T15:17:18;100994.63;;;15.71;55.83